White Water, California
Current Conditions -  °F | °C
As of 1:53 AM on Saturday 22 Nov 2014 (Local Time) from KPSP Reporting Station
Clear Clear  
Wind Chill: 50°   Ceiling: Unl
Heat Index: 50°   Visibility: 10mi
Dew Point: 45°   Wind: 5mph
Humidity: 83%   Direction: 310°NW
Pressure: 30.04"   Gusts: NA
Location:  33.92°N, 116.64°W
Report Text: KPSP 220953Z 31004KT 10SM CLR 10/07 A3004 RMK AO2 SLP174 T01000072
Loading
Personal Weather Stations






























Interactive Weather Map New forecast layout! Learn more

10-Day Weather Forecast

Advertisements
Track Severe Weather on mobile